Terminal Aerodrome Forecast
Issued by NWS Sterling, VA

Current Version | Previous Version | Graphics & Text | Print | Product List | Glossary On
Versions: 1 2 3 4 5 6 7 8 9 10 11 12 13 14 15 16 17 18 19 20
000
FTUS41 KLWX 260200 AAA
TAFMRB
TAF AMD
KMRB 260234Z 2603/2624 07006KT 5SM -RASN OVC045
     FM260500 06006KT 3SM -SNRA OVC015
     FM260800 06007KT 2SM -SN OVC008
     FM261400 06007KT 1/2SM SN OVC008
     FM262300 02007KT 3/4SM -SN OVC010=

USA.gov is the U.S. government's official web portal to all federal, state and local government web resources and services.